Time;durP1;ratioP1;P1;durP2;ratioP2;P2;SDS_P1;SDS_P2;PMS_P1;PMS_P2;Temp;Humidity;BMP_temperature;BMP_pressure;BME280_temperature;BME280_humidity;BME280_pressure;Samples;Min_cycle;Max_cycle;Signal;HPM_P1;HPM_P2
2022/03/10 00:02:06;;;;;;;26.55;14.00;;;0.40;99.90;;;;;;5109523;27;20039;-65
2022/03/10 00:04:32;;;;;;;26.00;13.60;;;0.40;99.90;;;;;;5115374;27;20038;-65
2022/03/10 00:06:58;;;;;;;24.52;13.55;;;0.40;99.90;;;;;;5115801;27;20121;-64
2022/03/10 00:09:24;;;;;;;28.25;15.00;;;0.40;99.90;;;;;;5114445;27;20127;-65
2022/03/10 00:11:49;;;;;;;28.00;14.57;;;0.40;99.90;;;;;;5115010;27;20070;-65
2022/03/10 00:14:15;;;;;;;29.70;14.30;;;0.40;99.90;;;;;;5115578;27;20510;-65
2022/03/10 00:16:40;;;;;;;22.05;12.23;;;0.40;99.90;;;;;;5113939;27;20047;-65
2022/03/10 00:19:06;;;;;;;28.10;12.77;;;0.40;99.90;;;;;;5114925;27;20088;-64
2022/03/10 00:21:31;;;;;;;25.80;14.07;;;0.50;99.90;;;;;;5115202;27;20504;-65
2022/03/10 00:23:57;;;;;;;26.48;13.95;;;0.50;99.90;;;;;;5114870;27;20066;-64
2022/03/10 00:26:23;;;;;;;24.65;13.85;;;0.50;99.90;;;;;;5114784;27;20046;-65
2022/03/10 00:28:48;;;;;;;28.40;14.30;;;0.60;99.90;;;;;;5113652;27;20060;-65
2022/03/10 00:31:14;;;;;;;25.13;13.55;;;0.60;99.90;;;;;;5112966;27;20034;-64
2022/03/10 00:33:39;;;;;;;23.88;13.57;;;0.60;99.90;;;;;;5114861;27;20513;-65
2022/03/10 00:36:06;;;;;;;27.30;13.82;;;0.60;99.90;;;;;;5106419;27;20039;-65
2022/03/10 00:38:32;;;;;;;26.88;13.93;;;0.60;99.90;;;;;;5118326;27;20553;-65
2022/03/10 00:40:59;;;;;;;24.33;13.68;;;0.60;99.90;;;;;;5085226;27;20127;-65
2022/03/10 00:43:24;;;;;;;27.67;13.63;;;0.60;99.90;;;;;;5107058;27;20043;-65
2022/03/10 00:45:50;;;;;;;25.65;12.73;;;0.60;99.90;;;;;;5109964;27;20053;-65
2022/03/10 00:48:15;;;;;;;25.88;13.90;;;0.60;99.90;;;;;;5111291;27;20042;-65
2022/03/10 00:50:41;;;;;;;29.40;13.57;;;0.60;99.90;;;;;;5113323;27;20050;-65
2022/03/10 00:53:07;;;;;;;25.63;12.60;;;0.60;99.90;;;;;;5113515;27;20112;-65
2022/03/10 00:55:33;;;;;;;24.83;13.35;;;0.60;99.90;;;;;;5130924;27;20039;-65
2022/03/10 00:57:58;;;;;;;26.85;13.18;;;0.60;99.90;;;;;;5107001;27;20405;-65
2022/03/10 01:00:28;;;;;;;23.17;12.55;;;0.60;99.90;;;;;;5103199;27;20067;-65
2022/03/10 01:02:53;;;;;;;25.80;13.25;;;0.60;99.90;;;;;;5110496;27;20091;-65
2022/03/10 01:05:19;;;;;;;26.83;13.20;;;0.60;99.90;;;;;;5109987;27;20035;-65
2022/03/10 01:07:44;;;;;;;26.23;13.90;;;0.60;99.90;;;;;;5110988;27;20038;-65
2022/03/10 01:10:10;;;;;;;25.35;13.30;;;0.60;99.90;;;;;;5111812;27;20099;-65
2022/03/10 01:12:36;;;;;;;27.80;13.73;;;0.60;99.90;;;;;;5111277;27;20085;-65
2022/03/10 01:15:02;;;;;;;27.80;13.98;;;0.60;99.90;;;;;;5113027;27;20035;-65
2022/03/10 01:17:28;;;;;;;26.52;13.07;;;0.60;99.90;;;;;;5109804;27;20538;-65
2022/03/10 01:19:53;;;;;;;25.38;12.65;;;0.60;99.90;;;;;;5112749;27;20047;-64
2022/03/10 01:22:19;;;;;;;24.55;13.90;;;0.60;99.90;;;;;;5128950;27;20039;-65
2022/03/10 01:24:45;;;;;;;27.45;13.65;;;0.50;99.90;;;;;;5113625;27;20074;-65
2022/03/10 01:27:11;;;;;;;26.10;13.93;;;0.50;99.90;;;;;;5109269;27;20046;-65
2022/03/10 01:29:36;;;;;;;27.75;14.02;;;0.40;99.90;;;;;;5113398;27;20043;-65
2022/03/10 01:32:02;;;;;;;25.50;13.10;;;0.40;99.90;;;;;;5112576;27;20425;-64
2022/03/10 01:34:27;;;;;;;23.75;13.32;;;0.30;99.90;;;;;;5113172;27;20393;-65
2022/03/10 01:36:53;;;;;;;28.02;14.05;;;0.20;99.90;;;;;;5112299;27;20481;-64
2022/03/10 01:39:18;;;;;;;29.45;14.52;;;0.20;99.90;;;;;;5112097;27;20449;-65
2022/03/10 01:41:45;;;;;;;27.38;14.52;;;0.20;99.90;;;;;;5108707;27;20554;-65
2022/03/10 01:44:11;;;;;;;28.33;14.98;;;0.20;99.90;;;;;;5111671;27;20039;-64
2022/03/10 01:46:37;;;;;;;27.48;14.07;;;0.20;99.90;;;;;;5107688;27;20031;-65
2022/03/10 01:49:04;;;;;;;25.30;13.88;;;0.20;99.90;;;;;;5107648;27;20035;-65
2022/03/10 01:51:31;;;;;;;26.75;13.50;;;0.20;99.90;;;;;;5109221;27;20035;-65
2022/03/10 01:53:57;;;;;;;27.73;14.13;;;0.20;99.90;;;;;;5114138;27;20121;-65
2022/03/10 01:56:23;;;;;;;29.50;14.30;;;0.10;99.90;;;;;;5113839;27;20131;-65
2022/03/10 01:58:50;;;;;;;31.77;14.50;;;0.10;99.90;;;;;;5113330;27;20060;-65
2022/03/10 02:01:17;;;;;;;27.10;13.82;;;0.10;99.90;;;;;;5113495;27;20049;-65
2022/03/10 02:03:43;;;;;;;28.23;14.20;;;0.10;99.90;;;;;;5114195;27;20080;-65
2022/03/10 02:06:10;;;;;;;26.92;13.75;;;0.10;99.90;;;;;;5113531;27;20397;-65
2022/03/10 02:11:20;;;;;;;27.58;14.32;;;0.20;99.90;;;;;;5112390;27;20236;-65
2022/03/10 02:13:46;;;;;;;30.23;14.75;;;0.20;99.90;;;;;;5109959;27;20419;-65
2022/03/10 02:18:58;;;;;;;32.90;14.40;;;0.30;99.90;;;;;;5109351;27;20309;-65
2022/03/10 02:21:24;;;;;;;27.83;13.20;;;0.30;99.90;;;;;;5112141;27;20122;-64
2022/03/10 02:23:49;;;;;;;28.27;14.38;;;0.30;99.90;;;;;;5100513;27;20367;-65
2022/03/10 02:26:15;;;;;;;27.65;14.02;;;0.30;99.90;;;;;;5111984;27;20034;-65
2022/03/10 02:28:42;;;;;;;27.83;13.50;;;0.30;99.90;;;;;;5130491;27;20042;-65
2022/03/10 02:31:08;;;;;;;24.95;13.98;;;0.20;99.90;;;;;;5110590;27;20050;-65
2022/03/10 02:33:34;;;;;;;29.05;13.95;;;0.30;99.90;;;;;;5111877;27;20145;-65
2022/03/10 02:36:00;;;;;;;27.98;14.50;;;0.30;99.90;;;;;;5109982;27;20123;-65
2022/03/10 02:38:25;;;;;;;27.13;14.05;;;0.20;99.90;;;;;;5111500;27;20043;-65
2022/03/10 02:40:51;;;;;;;27.63;14.57;;;0.30;99.90;;;;;;5108804;27;20042;-65
2022/03/10 02:43:18;;;;;;;26.35;13.90;;;0.30;99.90;;;;;;5111487;27;20053;-65
2022/03/10 02:45:45;;;;;;;29.75;13.25;;;0.30;99.90;;;;;;5107724;27;20080;-65
2022/03/10 02:48:11;;;;;;;30.50;14.40;;;0.30;99.90;;;;;;5103555;27;20047;-65
2022/03/10 02:50:37;;;;;;;27.45;14.50;;;0.30;99.90;;;;;;5110949;27;20115;-65
2022/03/10 02:53:02;;;;;;;29.35;15.27;;;0.30;99.90;;;;;;5111499;27;20133;-65
2022/03/10 02:55:29;;;;;;;24.42;13.48;;;0.30;99.90;;;;;;5110454;27;20644;-65
2022/03/10 02:57:54;;;;;;;27.63;14.43;;;0.30;99.90;;;;;;5109377;28;20085;-65
2022/03/10 03:00:19;;;;;;;29.42;13.98;;;0.30;99.90;;;;;;5108775;27;20447;-65
2022/03/10 03:02:46;;;;;;;28.95;14.88;;;0.30;99.90;;;;;;5111389;28;20053;-65
2022/03/10 03:05:12;;;;;;;27.27;14.25;;;0.30;99.90;;;;;;5129571;28;20039;-65
2022/03/10 03:07:39;;;;;;;27.95;14.93;;;0.30;99.90;;;;;;5110865;28;20042;-65
2022/03/10 03:10:06;;;;;;;27.83;14.50;;;0.30;99.90;;;;;;5110270;28;20058;-66
2022/03/10 03:12:32;;;;;;;28.88;14.98;;;0.30;99.90;;;;;;5123165;27;20039;-66
2022/03/10 03:14:58;;;;;;;31.98;15.05;;;0.30;99.90;;;;;;5109630;28;20239;-65
2022/03/10 03:17:24;;;;;;;29.88;14.50;;;0.30;99.90;;;;;;5111592;28;20064;-66
2022/03/10 03:19:51;;;;;;;25.88;13.95;;;0.40;99.90;;;;;;5109795;28;20097;-65
2022/03/10 03:22:16;;;;;;;27.10;14.25;;;0.40;99.90;;;;;;5109167;28;20126;-65
2022/03/10 03:24:42;;;;;;;31.33;15.50;;;0.40;99.90;;;;;;5111228;27;20452;-65
2022/03/10 03:27:08;;;;;;;31.83;15.57;;;0.40;99.90;;;;;;5115054;27;20043;-65
2022/03/10 03:29:34;;;;;;;29.45;15.27;;;0.40;99.90;;;;;;5111562;27;20416;-65
2022/03/10 03:31:59;;;;;;;30.75;15.68;;;0.40;99.90;;;;;;5115297;27;20047;-65
2022/03/10 03:34:25;;;;;;;30.27;15.77;;;0.40;99.90;;;;;;5115333;27;20039;-65
2022/03/10 03:36:50;;;;;;;32.45;16.33;;;0.40;99.90;;;;;;5133749;27;20039;-65
2022/03/10 03:39:16;;;;;;;31.88;15.30;;;0.40;99.90;;;;;;5112703;27;20067;-65
2022/03/10 03:41:41;;;;;;;28.63;14.57;;;0.40;99.90;;;;;;5115038;27;20509;-65
2022/03/10 03:44:10;;;;;;;30.70;14.60;;;0.40;99.90;;;;;;5114853;27;20358;-65
2022/03/10 03:46:36;;;;;;;30.15;15.05;;;0.40;99.90;;;;;;5102931;27;20096;-65
2022/03/10 03:49:02;;;;;;;28.95;14.13;;;0.40;99.90;;;;;;5109371;27;20043;-65
2022/03/10 03:51:28;;;;;;;26.15;14.68;;;0.40;99.90;;;;;;5116076;27;20398;-65
2022/03/10 03:53:53;;;;;;;30.75;14.48;;;0.40;99.90;;;;;;5109829;27;20095;-65
2022/03/10 03:56:19;;;;;;;29.02;15.60;;;0.40;99.90;;;;;;5115126;27;20050;-65
2022/03/10 03:58:45;;;;;;;30.95;14.82;;;0.40;99.90;;;;;;5113654;27;20054;-65
2022/03/10 04:01:10;;;;;;;30.90;14.95;;;0.50;99.90;;;;;;5132580;27;20034;-65
2022/03/10 04:03:37;;;;;;;28.95;14.65;;;0.50;99.90;;;;;;5114429;27;20084;-66
2022/03/10 04:06:02;;;;;;;32.53;14.82;;;0.40;99.90;;;;;;5133560;27;20038;-65
2022/03/10 04:08:28;;;;;;;31.95;15.05;;;0.40;99.90;;;;;;5108391;27;20038;-65
2022/03/10 04:10:53;;;;;;;29.23;14.90;;;0.40;99.90;;;;;;5114020;27;20497;-65
2022/03/10 04:13:22;;;;;;;29.70;14.25;;;0.50;99.90;;;;;;5113300;27;20506;-65
2022/03/10 04:15:53;;;;;;;29.20;14.50;;;0.40;99.90;;;;;;5112577;27;20421;-65
2022/03/10 04:18:19;;;;;;;30.23;14.40;;;0.40;99.90;;;;;;5114684;27;20043;-66
2022/03/10 04:20:45;;;;;;;28.95;14.65;;;0.40;99.90;;;;;;5113891;27;20027;-66
2022/03/10 04:23:12;;;;;;;27.60;14.38;;;0.40;99.90;;;;;;5114452;27;20122;-66
2022/03/10 04:25:37;;;;;;;30.00;15.52;;;0.40;99.90;;;;;;5112199;27;20053;-65
2022/03/10 04:28:04;;;;;;;34.53;14.98;;;0.40;99.90;;;;;;5132651;27;20027;-65
2022/03/10 04:30:32;;;;;;;31.17;14.80;;;0.40;99.90;;;;;;5113645;27;20046;-65
2022/03/10 04:32:58;;;;;;;32.78;15.63;;;0.40;99.90;;;;;;5114021;27;20042;-65
2022/03/10 04:35:24;;;;;;;29.80;14.90;;;0.30;99.90;;;;;;5114139;27;20408;-65
2022/03/10 04:37:50;;;;;;;31.73;15.15;;;0.30;99.90;;;;;;5114438;27;20508;-65
2022/03/10 04:40:16;;;;;;;36.40;16.83;;;0.20;99.90;;;;;;5112869;27;20110;-65
2022/03/10 04:42:42;;;;;;;36.30;16.92;;;0.20;99.90;;;;;;5113881;27;20121;-65
2022/03/10 04:45:08;;;;;;;31.67;15.10;;;0.20;99.90;;;;;;5113750;27;20038;-65
2022/03/10 04:47:35;;;;;;;31.42;15.30;;;0.20;99.90;;;;;;5113563;27;20131;-65
2022/03/10 04:50:01;;;;;;;30.02;15.32;;;0.20;99.90;;;;;;5115172;27;20043;-65
2022/03/10 04:52:28;;;;;;;29.60;15.27;;;0.20;99.90;;;;;;5113857;27;20043;-65
2022/03/10 04:54:53;;;;;;;29.98;14.85;;;0.20;99.90;;;;;;5121511;27;20050;-65
2022/03/10 04:57:19;;;;;;;30.08;15.32;;;0.20;99.90;;;;;;5112646;27;20039;-65
2022/03/10 04:59:45;;;;;;;35.67;15.93;;;0.20;99.90;;;;;;5109544;27;20056;-65
2022/03/10 05:02:10;;;;;;;33.38;16.02;;;0.20;99.90;;;;;;5112268;27;20027;-65
2022/03/10 05:04:36;;;;;;;32.92;16.05;;;0.20;99.90;;;;;;5113277;27;20062;-66
2022/03/10 05:07:01;;;;;;;35.75;16.17;;;0.20;99.90;;;;;;5113079;27;20390;-65
2022/03/10 05:09:27;;;;;;;36.60;17.13;;;0.20;99.90;;;;;;5112085;27;20031;-65
2022/03/10 05:11:52;;;;;;;31.77;15.68;;;0.20;99.90;;;;;;5106662;27;20138;-65
2022/03/10 05:14:18;;;;;;;33.83;15.45;;;0.20;99.90;;;;;;5094686;27;20395;-65
2022/03/10 05:16:43;;;;;;;33.30;16.58;;;0.20;99.90;;;;;;5112059;27;20556;-65
2022/03/10 05:19:09;;;;;;;31.55;15.75;;;0.20;99.90;;;;;;5110595;27;20031;-65
2022/03/10 05:21:34;;;;;;;35.08;16.33;;;0.20;99.90;;;;;;5110544;27;20251;-65
2022/03/10 05:24:00;;;;;;;32.78;15.70;;;0.20;99.90;;;;;;5110416;27;20043;-66
2022/03/10 05:26:26;;;;;;;30.85;16.25;;;0.20;99.90;;;;;;5113365;27;20035;-65
2022/03/10 05:28:51;;;;;;;34.55;16.33;;;0.20;99.90;;;;;;5112686;27;20043;-65
2022/03/10 05:31:17;;;;;;;32.00;16.17;;;0.20;99.90;;;;;;5131589;27;20066;-65
2022/03/10 05:33:42;;;;;;;36.67;16.30;;;0.20;99.90;;;;;;5112731;27;20138;-65
2022/03/10 05:36:08;;;;;;;33.28;16.48;;;0.10;99.90;;;;;;5112714;27;20043;-65
2022/03/10 05:38:33;;;;;;;34.67;16.65;;;0.10;99.90;;;;;;5102341;27;20071;-65
2022/03/10 05:41:00;;;;;;;36.40;16.95;;;0.10;99.90;;;;;;5112729;27;20108;-66
2022/03/10 05:43:26;;;;;;;34.97;16.13;;;0.10;99.90;;;;;;5112586;27;20039;-65
2022/03/10 05:45:52;;;;;;;33.88;16.13;;;0.10;99.90;;;;;;5112260;27;20023;-65
2022/03/10 05:48:17;;;;;;;37.63;17.00;;;0.10;99.90;;;;;;5111780;27;20039;-65
2022/03/10 05:50:43;;;;;;;35.17;16.45;;;0.10;99.90;;;;;;5112367;27;20135;-65
2022/03/10 05:53:09;;;;;;;36.03;16.60;;;0.10;99.90;;;;;;5105183;27;20035;-65
2022/03/10 05:55:35;;;;;;;32.38;16.55;;;0.10;99.90;;;;;;5111385;27;20039;-65
2022/03/10 05:58:01;;;;;;;32.38;16.00;;;0.10;99.90;;;;;;5111987;27;20069;-65
2022/03/10 06:00:26;;;;;;;30.85;16.08;;;0.00;99.90;;;;;;5107779;27;20031;-65
2022/03/10 06:02:52;;;;;;;35.45;17.23;;;0.00;99.90;;;;;;5128963;27;20469;-65
2022/03/10 06:05:17;;;;;;;36.15;17.20;;;0.00;99.90;;;;;;5111628;27;20414;-65
2022/03/10 06:07:43;;;;;;;38.08;17.65;;;0.00;99.90;;;;;;5107825;27;20550;-65
2022/03/10 06:10:09;;;;;;;31.35;16.60;;;0.10;99.90;;;;;;5110900;27;20066;-65
2022/03/10 06:12:35;;;;;;;34.35;16.00;;;0.10;99.90;;;;;;5111643;27;20088;-65
2022/03/10 06:15:05;;;;;;;32.50;15.88;;;0.10;99.90;;;;;;5129883;27;20031;-65
2022/03/10 06:17:31;;;;;;;33.65;15.05;;;0.10;99.90;;;;;;5109974;27;20129;-65
2022/03/10 06:19:57;;;;;;;32.85;16.00;;;0.10;99.90;;;;;;5110538;27;20072;-65
2022/03/10 06:22:26;;;;;;;34.58;15.95;;;0.10;99.90;;;;;;5109151;27;20039;-65
2022/03/10 06:24:51;;;;;;;31.50;15.18;;;0.10;99.90;;;;;;5109997;27;20376;-65
2022/03/10 06:27:18;;;;;;;32.30;15.82;;;0.20;99.90;;;;;;5128924;27;20041;-65
2022/03/10 06:29:45;;;;;;;31.92;15.27;;;0.30;99.90;;;;;;5113554;27;20465;-66
2022/03/10 06:32:12;;;;;;;34.17;16.02;;;0.30;99.90;;;;;;5111663;27;20046;-65
2022/03/10 06:34:38;;;;;;;35.90;16.00;;;0.30;99.90;;;;;;5108465;27;20066;-65
2022/03/10 06:37:04;;;;;;;30.77;15.95;;;0.30;99.90;;;;;;5111547;27;20039;-65
2022/03/10 06:39:30;;;;;;;34.08;16.38;;;0.40;99.90;;;;;;5111358;27;20035;-65
2022/03/10 06:41:55;;;;;;;32.60;16.02;;;0.40;99.90;;;;;;5112101;28;20543;-65
2022/03/10 06:44:21;;;;;;;35.38;16.08;;;0.40;99.90;;;;;;5109096;27;20061;-65
2022/03/10 06:46:47;;;;;;;35.85;16.40;;;0.40;99.90;;;;;;5129201;27;20035;-65
2022/03/10 06:49:12;;;;;;;36.38;16.55;;;0.50;99.90;;;;;;5094629;27;20031;-65
2022/03/10 06:51:38;;;;;;;32.75;15.43;;;0.50;99.90;;;;;;5111460;27;20088;-65
2022/03/10 06:54:04;;;;;;;33.97;14.88;;;0.60;99.90;;;;;;5109037;28;20050;-65
2022/03/10 06:56:30;;;;;;;31.67;15.73;;;0.70;99.90;;;;;;5112469;27;20059;-65
2022/03/10 06:58:56;;;;;;;34.53;15.95;;;0.70;99.90;;;;;;5109761;28;20035;-65
2022/03/10 07:01:21;;;;;;;33.70;16.30;;;0.80;99.90;;;;;;5101977;27;20042;-65
2022/03/10 07:03:47;;;;;;;35.25;16.25;;;0.80;99.90;;;;;;5111637;28;20470;-65
2022/03/10 07:06:13;;;;;;;33.95;15.13;;;0.90;99.90;;;;;;5111191;27;20043;-66
2022/03/10 07:08:39;;;;;;;34.90;16.98;;;1.00;99.90;;;;;;5110793;28;20035;-65
2022/03/10 07:11:04;;;;;;;36.60;15.93;;;1.10;99.90;;;;;;5111665;28;20062;-66
2022/03/10 07:13:30;;;;;;;29.50;15.07;;;1.20;99.90;;;;;;5110371;27;20049;-65
2022/03/10 07:15:55;;;;;;;36.60;16.20;;;1.30;99.90;;;;;;5111978;28;20067;-65
2022/03/10 07:18:21;;;;;;;32.65;16.23;;;1.40;99.90;;;;;;5107298;28;20085;-65
2022/03/10 07:20:48;;;;;;;33.92;17.08;;;1.50;99.90;;;;;;5111438;28;20489;-65
2022/03/10 07:23:13;;;;;;;30.05;15.85;;;1.50;99.90;;;;;;5111728;28;20087;-66
2022/03/10 07:25:41;;;;;;;33.97;15.98;;;1.60;99.90;;;;;;5112117;28;20122;-65
2022/03/10 07:28:07;;;;;;;33.45;16.17;;;1.70;99.90;;;;;;5130127;28;20046;-66
2022/03/10 07:30:33;;;;;;;33.65;16.45;;;1.80;99.90;;;;;;5111128;28;20047;-65
2022/03/10 07:32:58;;;;;;;33.65;16.38;;;1.90;99.90;;;;;;5110928;28;20061;-65
2022/03/10 07:35:24;;;;;;;30.67;15.50;;;2.00;99.90;;;;;;5094976;28;20043;-66
2022/03/10 07:37:51;;;;;;;33.35;16.67;;;2.10;99.90;;;;;;5108726;28;20066;-66
2022/03/10 07:40:17;;;;;;;35.03;15.93;;;2.20;99.90;;;;;;5110263;28;20038;-66
2022/03/10 07:42:42;;;;;;;34.25;15.90;;;2.30;99.90;;;;;;5110361;28;20039;-66
2022/03/10 07:45:09;;;;;;;33.78;16.50;;;2.40;99.90;;;;;;5112166;28;20504;-66
2022/03/10 07:47:35;;;;;;;30.77;15.68;;;2.50;99.90;;;;;;5111432;28;20054;-65
2022/03/10 07:50:00;;;;;;;36.58;15.88;;;2.60;99.90;;;;;;5106761;27;20042;-66
2022/03/10 07:52:26;;;;;;;32.08;15.90;;;2.70;99.90;;;;;;5104979;28;20397;-66
2022/03/10 07:54:51;;;;;;;31.05;15.77;;;2.90;99.90;;;;;;5111699;28;20046;-66
2022/03/10 07:57:17;;;;;;;34.30;16.02;;;2.90;99.90;;;;;;5107561;28;20035;-67
2022/03/10 07:59:42;;;;;;;30.50;16.17;;;3.00;99.90;;;;;;5105642;28;20366;-66
2022/03/10 08:02:08;;;;;;;31.67;16.15;;;3.20;99.90;;;;;;5107944;28;20050;-66
2022/03/10 08:04:33;;;;;;;38.95;16.05;;;3.30;99.90;;;;;;5110870;28;20398;-66
2022/03/10 08:06:59;;;;;;;34.78;15.82;;;3.50;99.90;;;;;;5109900;28;20039;-66
2022/03/10 08:09:24;;;;;;;31.58;15.93;;;3.60;99.90;;;;;;5127758;28;20553;-66
2022/03/10 08:11:50;;;;;;;32.00;16.08;;;3.70;99.90;;;;;;5112832;27;20038;-66
2022/03/10 08:14:15;;;;;;;30.35;15.52;;;3.80;99.90;;;;;;5114809;27;20035;-66
2022/03/10 08:16:41;;;;;;;32.90;16.15;;;3.90;99.90;;;;;;5113252;27;20422;-66
2022/03/10 08:19:09;;;;;;;32.92;15.98;;;4.00;99.90;;;;;;5115349;27;20039;-66
2022/03/10 08:21:34;;;;;;;28.13;14.73;;;4.20;99.90;;;;;;5110789;28;20080;-66
2022/03/10 08:24:00;;;;;;;32.40;16.73;;;4.30;99.90;;;;;;5114040;27;20031;-66
2022/03/10 08:26:26;;;;;;;28.77;15.05;;;4.40;99.90;;;;;;5116153;27;20031;-66
2022/03/10 08:28:53;;;;;;;32.60;15.90;;;4.60;99.90;;;;;;5115782;27;20050;-66
2022/03/10 08:31:20;;;;;;;31.92;15.85;;;4.70;99.90;;;;;;5133116;27;20435;-66
2022/03/10 08:33:46;;;;;;;29.35;15.80;;;4.80;99.90;;;;;;5097935;27;20035;-66
2022/03/10 08:36:12;;;;;;;29.95;15.57;;;4.90;99.90;;;;;;5103843;27;20039;-66
2022/03/10 08:38:37;;;;;;;27.45;15.18;;;5.10;99.90;;;;;;5112362;28;20394;-66
2022/03/10 08:41:03;;;;;;;29.63;16.13;;;5.20;99.90;;;;;;5094648;28;20119;-66
2022/03/10 08:43:30;;;;;;;32.88;15.55;;;5.40;99.90;;;;;;5093089;28;20046;-66
2022/03/10 08:45:57;;;;;;;30.65;15.60;;;5.50;99.90;;;;;;5104591;27;20035;-66
2022/03/10 08:48:22;;;;;;;29.90;14.73;;;5.60;99.90;;;;;;5112820;28;20043;-66
2022/03/10 08:50:48;;;;;;;28.42;16.00;;;5.70;99.90;;;;;;5111175;28;20059;-66
2022/03/10 08:53:13;;;;;;;28.08;15.48;;;5.80;99.90;;;;;;5111507;28;20050;-66
2022/03/10 08:55:39;;;;;;;30.73;15.25;;;5.90;99.90;;;;;;5111687;28;20054;-66
2022/03/10 08:58:04;;;;;;;28.40;15.60;;;6.10;99.90;;;;;;5094581;28;20160;-67
2022/03/10 09:00:30;;;;;;;29.90;15.20;;;6.20;99.90;;;;;;5114769;27;20047;-67
2022/03/10 09:02:59;;;;;;;25.85;14.98;;;6.30;99.90;;;;;;5105229;27;20047;-66
2022/03/10 09:05:25;;;;;;;26.25;14.75;;;6.40;99.90;;;;;;5114797;27;20397;-67
2022/03/10 09:07:51;;;;;;;29.73;15.88;;;6.60;99.90;;;;;;5114647;27;20077;-67
2022/03/10 09:10:17;;;;;;;24.85;15.13;;;6.70;99.90;;;;;;5111895;27;20271;-66
2022/03/10 09:12:43;;;;;;;29.08;15.73;;;6.80;99.90;;;;;;5114809;27;20047;-67
2022/03/10 09:15:11;;;;;;;31.52;15.70;;;6.90;99.90;;;;;;5114333;27;20039;-67
2022/03/10 09:17:37;;;;;;;25.73;14.43;;;7.00;99.90;;;;;;5111393;27;20532;-67
2022/03/10 09:20:05;;;;;;;27.33;14.82;;;7.10;99.90;;;;;;5113846;27;20039;-67
2022/03/10 09:22:31;;;;;;;27.58;15.38;;;7.30;99.90;;;;;;5114255;27;20043;-67
2022/03/10 09:24:56;;;;;;;27.75;15.88;;;7.40;99.90;;;;;;5113716;27;20039;-67
2022/03/10 09:27:22;;;;;;;24.55;14.85;;;7.50;99.90;;;;;;5113806;27;20035;-66
2022/03/10 09:29:48;;;;;;;25.13;14.35;;;7.60;99.90;;;;;;5113774;27;20042;-67
2022/03/10 09:32:13;;;;;;;28.73;15.23;;;7.70;99.90;;;;;;5098202;27;20081;-67
2022/03/10 09:34:39;;;;;;;25.60;15.18;;;7.70;99.90;;;;;;5096466;27;20100;-67
2022/03/10 09:37:06;;;;;;;26.73;15.48;;;7.90;99.90;;;;;;5109810;27;20493;-66
2022/03/10 09:39:32;;;;;;;26.85;15.63;;;8.00;99.90;;;;;;5093459;28;20059;-67
2022/03/10 09:42:02;;;;;;;26.55;15.30;;;8.10;99.90;;;;;;5107284;27;20119;-67
2022/03/10 09:44:30;;;;;;;28.60;15.45;;;8.20;95.70;;;;;;5114017;27;20360;-67
2022/03/10 09:47:02;;;;;;;25.50;14.85;;;8.30;99.90;;;;;;5113800;27;20054;-68
2022/03/10 09:49:28;;;;;;;26.45;15.23;;;8.40;99.90;;;;;;5113539;27;20035;-66
2022/03/10 09:51:55;;;;;;;25.98;15.23;;;8.50;99.90;;;;;;5114005;27;20176;-68
2022/03/10 09:54:21;;;;;;;25.10;14.77;;;8.70;99.90;;;;;;5113451;27;20400;-67
2022/03/10 09:56:47;;;;;;;23.73;14.85;;;8.80;99.90;;;;;;5113772;27;20050;-67
2022/03/10 09:59:13;;;;;;;29.88;15.57;;;8.90;99.20;;;;;;5112937;27;20382;-67
2022/03/10 10:01:39;;;;;;;23.80;14.75;;;9.00;99.90;;;;;;5098095;27;20043;-67
2022/03/10 10:04:06;;;;;;;23.77;15.18;;;9.10;99.70;;;;;;5093036;28;20449;-67
2022/03/10 10:06:34;;;;;;;29.63;15.60;;;9.30;99.50;;;;;;5091882;27;20057;-67
2022/03/10 10:09:00;;;;;;;28.10;16.13;;;9.40;96.90;;;;;;5106314;27;20049;-66
2022/03/10 10:11:33;;;;;;;26.48;16.08;;;9.50;97.90;;;;;;5113449;27;20121;-67
2022/03/10 10:13:59;;;;;;;28.05;16.17;;;9.60;98.10;;;;;;5113557;27;20042;-66
2022/03/10 10:16:26;;;;;;;30.45;16.30;;;9.70;95.80;;;;;;5112555;27;20505;-66
2022/03/10 10:18:56;;;;;;;29.35;16.80;;;9.90;96.00;;;;;;5112655;27;20047;-67
2022/03/10 10:21:23;;;;;;;33.50;16.83;;;10.00;90.00;;;;;;5113139;27;20101;-67
2022/03/10 10:23:51;;;;;;;28.52;16.88;;;10.10;92.70;;;;;;5098764;27;20063;-66
2022/03/10 10:26:18;;;;;;;31.23;17.45;;;10.20;91.10;;;;;;5109733;28;20051;-67
2022/03/10 10:28:48;;;;;;;31.65;17.35;;;10.30;91.50;;;;;;5099151;27;20126;-67
2022/03/10 10:31:19;;;;;;;28.08;16.25;;;10.40;91.70;;;;;;5112550;28;20050;-66
2022/03/10 10:34:09;;;;;;;31.00;17.33;;;10.50;90.00;;;;;;5129585;27;20050;-66
2022/03/10 10:36:37;;;;;;;28.58;16.10;;;10.60;81.20;;;;;;5105186;27;20130;-67
2022/03/10 10:39:16;;;;;;;32.25;17.95;;;10.70;85.80;;;;;;5109358;27;20043;-67
2022/03/10 10:41:43;;;;;;;30.95;16.88;;;10.80;86.20;;;;;;5108501;27;20116;-67
2022/03/10 10:44:15;;;;;;;33.30;18.58;;;10.90;86.70;;;;;;5110927;27;20451;-67
2022/03/10 10:46:43;;;;;;;31.35;17.30;;;11.00;81.10;;;;;;5112332;27;20031;-67
2022/03/10 10:49:16;;;;;;;34.15;18.05;;;11.20;81.50;;;;;;5111789;27;20055;-67
2022/03/10 10:51:48;;;;;;;31.77;17.83;;;11.20;78.30;;;;;;5111300;27;20043;-68
2022/03/10 10:54:20;;;;;;;34.83;18.77;;;11.30;79.40;;;;;;5112369;27;20035;-67
2022/03/10 10:56:54;;;;;;;38.33;18.73;;;11.50;76.60;;;;;;5131238;27;20047;-68
2022/03/10 10:59:30;;;;;;;37.50;19.05;;;11.60;76.80;;;;;;5108040;27;20114;-67
2022/03/10 11:02:11;;;;;;;37.83;19.05;;;11.70;78.00;;;;;;5092355;28;20070;-67
2022/03/10 11:04:41;;;;;;;36.00;19.63;;;11.80;78.00;;;;;;5092941;28;20058;-67
2022/03/10 11:07:09;;;;;;;37.83;19.80;;;11.90;76.70;;;;;;5092142;28;20064;-67
2022/03/10 11:09:35;;;;;;;36.28;18.90;;;12.00;76.10;;;;;;5090460;28;20104;-67
2022/03/10 11:12:01;;;;;;;39.30;19.92;;;12.10;70.00;;;;;;5091029;28;20134;-67
2022/03/10 11:14:26;;;;;;;37.58;20.10;;;12.20;70.00;;;;;;5110203;28;20127;-66
2022/03/10 11:16:58;;;;;;;40.25;21.00;;;12.20;69.70;;;;;;5092301;28;20075;-67
2022/03/10 11:19:25;;;;;;;39.47;20.13;;;12.30;65.20;;;;;;5091337;28;20379;-67
2022/03/10 11:22:28;;;;;;;40.85;21.55;;;12.40;68.60;;;;;;5092502;28;20497;-67
2022/03/10 11:25:30;;;;;;;38.67;20.50;;;12.50;66.70;;;;;;5092242;28;20043;-67
2022/03/10 11:28:19;;;;;;;41.28;20.63;;;12.60;67.60;;;;;;5091680;28;20478;-66
2022/03/10 11:30:55;;;;;;;39.90;21.33;;;12.80;66.10;;;;;;5105561;28;20043;-67
2022/03/10 11:33:28;;;;;;;40.88;20.58;;;12.90;68.40;;;;;;5110196;28;20043;-66
2022/03/10 11:35:53;;;;;;;40.35;20.45;;;13.00;69.40;;;;;;5112536;28;20082;-67
2022/03/10 11:38:19;;;;;;;40.78;20.73;;;13.10;66.60;;;;;;5112108;28;20120;-67
2022/03/10 11:40:56;;;;;;;41.28;22.35;;;13.10;64.90;;;;;;5111481;28;20530;-67
2022/03/10 11:43:36;;;;;;;44.58;22.30;;;13.20;63.90;;;;;;5130613;28;20069;-68
2022/03/10 11:46:22;;;;;;;43.22;21.90;;;13.30;61.10;;;;;;5104960;28;20031;-67
2022/03/10 11:49:15;;;;;;;45.33;22.45;;;13.30;62.60;;;;;;5095366;28;20268;-68
2022/03/10 11:51:43;;;;;;;43.15;21.63;;;13.40;62.00;;;;;;5103818;27;20047;-67
2022/03/10 11:54:11;;;;;;;41.35;21.33;;;13.50;62.50;;;;;;5114893;27;20047;-66
2022/03/10 11:56:43;;;;;;;43.83;21.48;;;13.60;61.90;;;;;;5116157;27;20070;-67
2022/03/10 11:59:23;;;;;;;43.55;21.52;;;13.60;60.30;;;;;;5133243;27;20043;-68
2022/03/10 12:01:49;;;;;;;44.72;22.30;;;13.70;59.40;;;;;;5116199;27;20545;-67
2022/03/10 12:04:17;;;;;;;46.95;23.33;;;13.70;59.90;;;;;;5115907;27;20071;-67
2022/03/10 12:06:57;;;;;;;44.67;22.23;;;13.80;59.10;;;;;;5115945;27;20118;-67
2022/03/10 12:09:33;;;;;;;44.47;23.25;;;13.80;58.40;;;;;;5097025;27;20067;-67
2022/03/10 12:12:19;;;;;;;43.63;22.75;;;13.80;57.10;;;;;;5113965;28;20039;-67
2022/03/10 12:14:45;;;;;;;44.88;22.67;;;13.90;58.50;;;;;;5112167;27;20035;-67
2022/03/10 12:17:42;;;;;;;45.85;22.23;;;14.00;59.70;;;;;;5115168;27;20038;-67
2022/03/10 12:20:14;;;;;;;43.50;22.42;;;14.00;59.60;;;;;;5115037;27;20480;-68
2022/03/10 12:22:40;;;;;;;;;;;14.10;59.90;;;;;;5114158;27;20370;-67
2022/03/10 12:25:25;;;;;;;47.58;22.13;;;14.10;56.80;;;;;;5134132;27;19926;-67
2022/03/10 12:27:53;;;;;;;44.28;21.73;;;14.20;58.90;;;;;;5113594;27;20100;-67
2022/03/10 12:30:29;;;;;;;45.33;21.40;;;14.30;59.10;;;;;;5111800;27;20047;-67
2022/03/10 12:32:56;;;;;;;45.55;21.55;;;14.30;58.70;;;;;;5113942;27;20042;-67
2022/03/10 12:35:30;;;;;;;45.50;22.45;;;14.40;57.50;;;;;;5114354;27;20053;-68
2022/03/10 12:37:56;;;;;;;51.28;23.40;;;14.40;57.70;;;;;;5114052;27;20114;-67
2022/03/10 12:40:24;;;;;;;47.72;22.80;;;14.50;57.80;;;;;;5114380;27;20438;-68
2022/03/10 12:42:51;;;;;;;47.05;22.05;;;14.50;57.90;;;;;;5114997;27;20031;-68